createdAt,value
2022-11-17T00:00:12.511Z,989.5
2022-11-17T00:01:30.185Z,989.5
2022-11-17T00:02:47.304Z,989.5
2022-11-17T00:04:04.176Z,989.5
2022-11-17T00:05:21.211Z,989.5
2022-11-17T00:06:38.150Z,989.5
2022-11-17T00:07:55.157Z,989.5
2022-11-17T00:09:12.175Z,989.6
2022-11-17T00:10:29.312Z,989.6
2022-11-17T00:11:47.191Z,989.6
2022-11-17T00:13:04.166Z,989.6
2022-11-17T00:14:21.163Z,989.6
2022-11-17T00:15:38.151Z,989.6
2022-11-17T00:16:55.181Z,989.5
2022-11-17T00:18:12.317Z,989.5
2022-11-17T00:19:29.171Z,989.5
2022-11-17T00:20:46.195Z,989.5
2022-11-17T00:22:03.179Z,989.5
2022-11-17T00:23:20.177Z,989.5
2022-11-17T00:24:37.250Z,989.5
2022-11-17T00:25:55.665Z,989.5
2022-11-17T00:27:13.188Z,989.5
2022-11-17T00:28:30.194Z,989.5
2022-11-17T00:29:47.215Z,989.5
2022-11-17T00:31:04.285Z,989.5
2022-11-17T00:32:21.215Z,989.5
2022-11-17T00:33:38.442Z,989.5
2022-11-17T00:34:55.232Z,989.5
2022-11-17T00:36:12.259Z,989.4
2022-11-17T00:37:29.210Z,989.4
2022-11-17T00:38:46.194Z,989.4
2022-11-17T00:40:03.269Z,989.4
2022-11-17T00:41:20.194Z,989.4
2022-11-17T00:42:37.263Z,989.4
2022-11-17T00:43:54.224Z,989.5
2022-11-17T00:45:11.200Z,989.5
2022-11-17T00:46:28.212Z,989.4
2022-11-17T00:47:45.294Z,989.4
2022-11-17T00:49:02.338Z,989.4
2022-11-17T00:50:19.221Z,989.4
2022-11-17T00:51:36.228Z,989.4
2022-11-17T00:52:53.252Z,989.4
2022-11-17T00:54:10.216Z,989.4
2022-11-17T00:55:27.310Z,989.4
2022-11-17T00:56:44.264Z,989.4
2022-11-17T00:58:01.318Z,989.4
2022-11-17T00:59:18.256Z,989.4
2022-11-17T01:00:35.247Z,989.4
2022-11-17T01:01:52.290Z,989.5
2022-11-17T01:03:09.239Z,989.5
2022-11-17T01:04:26.341Z,989.5
2022-11-17T01:05:43.238Z,989.4
2022-11-17T01:07:00.680Z,989.4
2022-11-17T01:08:17.235Z,989.4
2022-11-17T01:09:34.242Z,989.4
2022-11-17T01:10:51.235Z,989.4
2022-11-17T01:12:08.272Z,989.4
2022-11-17T01:13:25.236Z,989.4
2022-11-17T01:14:42.414Z,989.4
2022-11-17T01:15:59.288Z,989.5
2022-11-17T01:17:16.244Z,989.5
2022-11-17T01:18:33.324Z,989.5
2022-11-17T01:19:50.281Z,989.5
2022-11-17T01:21:07.351Z,989.5
2022-11-17T01:22:24.264Z,989.5
2022-11-17T01:23:41.327Z,989.5
2022-11-17T01:24:58.288Z,989.4
2022-11-17T01:26:15.318Z,989.4
2022-11-17T01:27:32.281Z,989.4
2022-11-17T01:28:50.310Z,989.4
2022-11-17T01:30:08.313Z,989.3
2022-11-17T01:31:25.342Z,989.3
2022-11-17T01:32:42.300Z,989.3
2022-11-17T01:33:59.267Z,989.3
2022-11-17T01:35:16.675Z,989.3
2022-11-17T01:36:34.268Z,989.3
2022-11-17T01:37:51.282Z,989.3
2022-11-17T01:39:08.311Z,989.3
2022-11-17T01:40:25.296Z,989.3
2022-11-17T01:41:42.316Z,989.3
2022-11-17T01:42:59.449Z,989.3
2022-11-17T01:44:17.341Z,989.3
2022-11-17T01:45:34.283Z,989.3
2022-11-17T01:46:51.372Z,989.3
2022-11-17T01:48:08.302Z,989.3
2022-11-17T01:49:25.326Z,989.3
2022-11-17T01:50:42.301Z,989.3
2022-11-17T01:51:59.925Z,989.3
2022-11-17T01:53:17.266Z,989.3
2022-11-17T01:54:34.172Z,989.2
2022-11-17T01:55:52.087Z,989.3
2022-11-17T01:57:09.178Z,989.3
2022-11-17T01:58:26.170Z,989.3
2022-11-17T01:59:43.181Z,989.3
2022-11-17T02:01:00.220Z,989.3
2022-11-17T02:02:17.180Z,989.3
2022-11-17T02:03:34.613Z,989.3
2022-11-17T02:04:51.172Z,989.3
2022-11-17T02:06:08.317Z,989.3
2022-11-17T02:07:25.657Z,989.2
2022-11-17T02:08:42.723Z,989.2
2022-11-17T02:09:59.182Z,989.2
2022-11-17T02:11:16.212Z,989.2
2022-11-17T02:12:33.226Z,989.2
2022-11-17T02:13:50.231Z,989.2
2022-11-17T02:15:07.279Z,989.2
2022-11-17T02:16:24.231Z,989.2
2022-11-17T02:17:41.247Z,989.3
2022-11-17T02:18:58.863Z,989.3
2022-11-17T02:20:16.225Z,989.2
2022-11-17T02:21:33.750Z,989.2
2022-11-17T02:22:50.206Z,989.2
2022-11-17T02:24:07.293Z,989.2
2022-11-17T02:25:26.929Z,989.2
2022-11-17T02:26:41.269Z,989.2
2022-11-17T02:27:58.269Z,989.2
2022-11-17T02:29:15.223Z,989.2
2022-11-17T02:30:32.335Z,989.2
2022-11-17T02:31:49.308Z,989.2
2022-11-17T02:33:06.225Z,989.2
2022-11-17T02:34:23.220Z,989.2
2022-11-17T02:35:40.273Z,989.2
2022-11-17T02:36:57.408Z,989.2
2022-11-17T02:38:14.263Z,989.1
2022-11-17T02:39:32.074Z,989.1
2022-11-17T02:40:49.262Z,989.1
2022-11-17T02:42:06.228Z,989.1
2022-11-17T02:43:23.258Z,989.1
2022-11-17T02:44:40.235Z,989.1
2022-11-17T02:45:58.036Z,989.1
2022-11-17T02:47:15.335Z,989
2022-11-17T02:48:32.245Z,989.1
2022-11-17T02:49:49.237Z,989.1
2022-11-17T02:51:06.233Z,989.1
2022-11-17T02:52:23.445Z,989.1
2022-11-17T02:53:40.237Z,989.1
2022-11-17T02:54:57.245Z,989
2022-11-17T02:56:14.237Z,989
2022-11-17T02:57:31.275Z,989.1
2022-11-17T02:58:48.273Z,989
2022-11-17T03:00:05.473Z,989
2022-11-17T03:01:22.324Z,989.1
2022-11-17T03:02:39.836Z,989.1
2022-11-17T03:03:57.334Z,989.1
2022-11-17T03:05:14.278Z,989.1
2022-11-17T03:06:32.170Z,989.1
2022-11-17T03:07:49.291Z,989.1
2022-11-17T03:09:06.294Z,989.1
2022-11-17T03:10:23.269Z,989
2022-11-17T03:11:40.307Z,989
2022-11-17T03:12:57.907Z,989
2022-11-17T03:14:15.115Z,989
2022-11-17T03:15:32.305Z,989
2022-11-17T03:16:49.277Z,989.1
2022-11-17T03:18:06.277Z,989.1
2022-11-17T03:19:23.352Z,989.1
2022-11-17T03:20:40.286Z,989
2022-11-17T03:21:57.283Z,989
2022-11-17T03:23:14.460Z,989
2022-11-17T03:24:31.369Z,989
2022-11-17T03:25:48.289Z,989
2022-11-17T03:27:05.376Z,989
2022-11-17T03:28:22.281Z,989
2022-11-17T03:29:39.414Z,989.1
2022-11-17T03:30:56.322Z,989
2022-11-17T03:32:13.292Z,989
2022-11-17T03:33:30.302Z,989.1
2022-11-17T03:34:47.294Z,989.1
2022-11-17T03:36:04.330Z,989.1
2022-11-17T03:37:21.334Z,989.1
2022-11-17T03:38:38.330Z,989
2022-11-17T03:39:55.300Z,989.1
2022-11-17T03:41:12.347Z,989.1
2022-11-17T03:42:29.323Z,989.1
2022-11-17T03:43:46.319Z,989.1
2022-11-17T03:45:04.149Z,989.1
2022-11-17T03:46:21.364Z,989.1
2022-11-17T03:47:38.322Z,989.1
2022-11-17T03:48:55.313Z,989.1
2022-11-17T03:50:12.341Z,989.1
2022-11-17T03:51:29.354Z,989.1
2022-11-17T03:52:46.314Z,989.1
2022-11-17T03:54:03.356Z,989.1
2022-11-17T03:55:20.344Z,989.1
2022-11-17T03:56:37.386Z,989.1
2022-11-17T03:57:54.318Z,989.1
2022-11-17T03:59:11.333Z,989.1
2022-11-17T04:00:28.329Z,989.1
2022-11-17T04:01:45.465Z,989.1
2022-11-17T04:03:02.344Z,989.2
2022-11-17T04:04:19.333Z,989.2
2022-11-17T04:05:36.392Z,989.2
2022-11-17T04:06:53.491Z,989.2
2022-11-17T04:08:10.367Z,989.2
2022-11-17T04:09:27.456Z,989.1
2022-11-17T04:10:44.403Z,989.1
2022-11-17T04:12:01.371Z,989.2
2022-11-17T04:13:18.348Z,989.2
2022-11-17T04:14:35.371Z,989.2
2022-11-17T04:15:52.373Z,989.2
2022-11-17T04:17:09.416Z,989.2
2022-11-17T04:18:26.477Z,989.2
2022-11-17T04:19:43.352Z,989.2
2022-11-17T04:21:00.418Z,989.3
2022-11-17T04:22:17.368Z,989.3
2022-11-17T04:23:34.694Z,989.3
2022-11-17T04:24:51.484Z,989.2
2022-11-17T04:26:08.403Z,989.2
2022-11-17T04:27:25.449Z,989.2
2022-11-17T04:28:42.383Z,989.2
2022-11-17T04:29:59.414Z,989.2
2022-11-17T04:31:16.412Z,989.2
2022-11-17T04:32:33.447Z,989.2
2022-11-17T04:33:50.404Z,989.1
2022-11-17T04:35:07.378Z,989.1
2022-11-17T04:36:24.377Z,989.2
2022-11-17T04:37:41.402Z,989.2
2022-11-17T04:38:58.381Z,989.2
2022-11-17T04:40:15.401Z,989.2
2022-11-17T04:41:32.399Z,989.1
2022-11-17T04:42:49.405Z,989.1
2022-11-17T04:44:06.662Z,989.1
2022-11-17T04:45:23.394Z,989.1
2022-11-17T04:46:40.472Z,989.1
2022-11-17T04:47:57.409Z,989.1
2022-11-17T04:49:15.071Z,989.1
2022-11-17T04:50:32.409Z,989.1
2022-11-17T04:51:49.777Z,989.1
2022-11-17T04:53:06.388Z,989.1
2022-11-17T04:54:23.437Z,989.1
2022-11-17T04:55:40.521Z,989.1
2022-11-17T04:56:57.436Z,989.1
2022-11-17T04:58:14.409Z,989.1
2022-11-17T04:59:31.440Z,989.1
2022-11-17T05:00:48.416Z,989.1
2022-11-17T05:02:06.255Z,989.1
2022-11-17T05:03:22.686Z,989.1
2022-11-17T05:04:39.474Z,989.1
2022-11-17T05:05:56.436Z,989.2
2022-11-17T05:07:13.498Z,989.1
2022-11-17T05:08:30.410Z,989.1
2022-11-17T05:09:47.456Z,989.2
2022-11-17T05:11:04.521Z,989.2
2022-11-17T05:12:21.449Z,989.2
2022-11-17T05:13:38.590Z,989.2
2022-11-17T05:14:55.490Z,989.2
2022-11-17T05:16:12.431Z,989.1
2022-11-17T05:17:29.495Z,989.1
2022-11-17T05:18:46.542Z,989.1
2022-11-17T05:20:03.763Z,989.2
2022-11-17T05:21:20.450Z,989.2
2022-11-17T05:22:37.430Z,989.2
2022-11-17T05:23:54.454Z,989.2
2022-11-17T05:25:11.506Z,989.2
2022-11-17T05:26:28.578Z,989.2
2022-11-17T05:27:45.450Z,989.2
2022-11-17T05:29:02.552Z,989.2
2022-11-17T05:30:19.509Z,989.2
2022-11-17T05:31:36.508Z,989.2
2022-11-17T05:32:53.459Z,989.2
2022-11-17T05:34:10.455Z,989.3
2022-11-17T05:35:27.536Z,989.2
2022-11-17T05:36:44.495Z,989.2
2022-11-17T05:38:01.597Z,989.2
2022-11-17T05:39:18.472Z,989.2
2022-11-17T05:40:35.498Z,989.2
2022-11-17T05:41:52.519Z,989.3
2022-11-17T05:43:09.485Z,989.3
2022-11-17T05:44:26.539Z,989.3
2022-11-17T05:45:43.506Z,989.3
2022-11-17T05:47:00.501Z,989.3
2022-11-17T05:48:18.120Z,989.4
2022-11-17T05:49:35.521Z,989.4
2022-11-17T05:50:52.549Z,989.4
2022-11-17T05:52:09.515Z,989.4
2022-11-17T05:53:26.486Z,989.4
2022-11-17T05:54:43.503Z,989.4
2022-11-17T05:56:00.513Z,989.4
2022-11-17T05:57:17.600Z,989.4
2022-11-17T05:58:35.077Z,989.4
2022-11-17T05:59:52.547Z,989.4
2022-11-17T06:01:09.552Z,989.4
2022-11-17T06:02:26.496Z,989.3
2022-11-17T06:03:43.559Z,989.3
2022-11-17T06:05:00.488Z,989.3
2022-11-17T06:06:17.503Z,989.3
2022-11-17T06:07:34.605Z,989.3
2022-11-17T06:08:51.573Z,989.3
2022-11-17T06:10:08.599Z,989.3
2022-11-17T06:11:25.510Z,989.4
2022-11-17T06:12:42.720Z,989.4
2022-11-17T06:13:59.566Z,989.4
2022-11-17T06:15:16.508Z,989.4
2022-11-17T06:16:33.517Z,989.4
2022-11-17T06:17:50.523Z,989.4
2022-11-17T06:19:07.549Z,989.4
2022-11-17T06:20:24.595Z,989.4
2022-11-17T06:22:04.795Z,989.4
2022-11-17T06:22:58.519Z,989.4
2022-11-17T06:24:15.555Z,989.4
2022-11-17T06:25:32.652Z,989.4
2022-11-17T06:26:49.526Z,989.4
2022-11-17T06:28:06.718Z,989.4
2022-11-17T06:29:23.557Z,989.4
2022-11-17T06:30:40.602Z,989.4
2022-11-17T06:31:57.651Z,989.4
2022-11-17T06:33:14.530Z,989.3
2022-11-17T06:34:31.550Z,989.3
2022-11-17T06:35:48.561Z,989.3
2022-11-17T06:37:05.540Z,989.3
2022-11-17T06:38:22.544Z,989.3
2022-11-17T06:39:39.572Z,989.3
2022-11-17T06:40:56.578Z,989.3
2022-11-17T06:42:13.638Z,989.3
2022-11-17T06:43:30.590Z,989.3
2022-11-17T06:44:47.644Z,989.3
2022-11-17T06:46:04.607Z,989.3
2022-11-17T06:47:21.691Z,989.3
2022-11-17T06:48:38.818Z,989.3
2022-11-17T06:49:55.617Z,989.3
2022-11-17T06:51:12.562Z,989.3
2022-11-17T06:52:29.574Z,989.3
2022-11-17T06:53:46.664Z,989.3
2022-11-17T06:55:03.596Z,989.3
2022-11-17T06:56:20.567Z,989.4
2022-11-17T06:57:37.602Z,989.4
2022-11-17T06:58:54.851Z,989.4
2022-11-17T07:00:11.672Z,989.4
2022-11-17T07:01:28.614Z,989.4
2022-11-17T07:02:45.600Z,989.4
2022-11-17T07:04:02.688Z,989.5
2022-11-17T07:05:19.607Z,989.5
2022-11-17T07:06:36.584Z,989.5
2022-11-17T07:07:53.746Z,989.4
2022-11-17T07:09:10.612Z,989.5
2022-11-17T07:10:27.677Z,989.5
2022-11-17T07:11:44.618Z,989.5
2022-11-17T07:13:01.593Z,989.5
2022-11-17T07:14:18.649Z,989.5
2022-11-17T07:15:35.681Z,989.6
2022-11-17T07:16:52.592Z,989.5
2022-11-17T07:18:09.584Z,989.5
2022-11-17T07:19:26.605Z,989.5
2022-11-17T07:20:43.630Z,989.5
2022-11-17T07:22:00.681Z,989.5
2022-11-17T07:23:17.618Z,989.5
2022-11-17T07:24:34.630Z,989.5
2022-11-17T07:25:51.603Z,989.6
2022-11-17T07:27:08.644Z,989.5
2022-11-17T07:28:25.636Z,989.5
2022-11-17T07:29:42.730Z,989.5
2022-11-17T07:30:59.649Z,989.5
2022-11-17T07:32:16.623Z,989.5
2022-11-17T07:33:33.624Z,989.4
2022-11-17T07:34:50.651Z,989.5
2022-11-17T07:36:07.626Z,989.5
2022-11-17T07:37:24.659Z,989.5
2022-11-17T07:38:41.632Z,989.5
2022-11-17T07:39:58.666Z,989.5
2022-11-17T07:41:15.664Z,989.5
2022-11-17T07:42:32.788Z,989.4
2022-11-17T07:43:49.637Z,989.4
2022-11-17T07:45:06.834Z,989.4
2022-11-17T07:46:23.649Z,989.4
2022-11-17T07:47:40.640Z,989.4
2022-11-17T07:48:57.645Z,989.5
2022-11-17T07:50:14.700Z,989.5
2022-11-17T07:51:31.677Z,989.5
2022-11-17T07:52:49.159Z,989.5
2022-11-17T07:54:05.802Z,989.5
2022-11-17T07:55:22.696Z,989.5
2022-11-17T07:56:39.669Z,989.4
2022-11-17T07:57:56.756Z,989.4
2022-11-17T07:59:17.222Z,989.4
2022-11-17T08:00:30.905Z,989.5
2022-11-17T08:01:47.689Z,989.5
2022-11-17T08:03:04.677Z,989.5
2022-11-17T08:04:21.659Z,989.5
2022-11-17T08:05:43.232Z,989.5
2022-11-17T08:06:55.720Z,989.4
2022-11-17T08:08:12.710Z,989.4
2022-11-17T08:09:29.694Z,989.4
2022-11-17T08:10:46.698Z,989.4
2022-11-17T08:12:03.731Z,989.4
2022-11-17T08:13:20.719Z,989.4
2022-11-17T08:14:37.731Z,989.4
2022-11-17T08:15:54.818Z,989.4
2022-11-17T08:17:11.729Z,989.4
2022-11-17T08:18:28.693Z,989.5
2022-11-17T08:19:45.748Z,989.4
2022-11-17T08:21:02.838Z,989.5
2022-11-17T08:22:19.682Z,989.5
2022-11-17T08:23:36.708Z,989.5
2022-11-17T08:24:53.680Z,989.5
2022-11-17T08:26:11.002Z,989.5
2022-11-17T08:27:27.745Z,989.4
2022-11-17T08:28:44.683Z,989.4
2022-11-17T08:30:01.720Z,989.4
2022-11-17T08:31:18.807Z,989.4
2022-11-17T08:32:35.727Z,989.4
2022-11-17T08:33:52.744Z,989.4
2022-11-17T08:35:09.705Z,989.4
2022-11-17T08:36:26.743Z,989.4
2022-11-17T08:37:43.716Z,989.4
2022-11-17T08:39:00.846Z,989.4
2022-11-17T08:40:17.748Z,989.5
2022-11-17T08:41:34.888Z,989.5
2022-11-17T08:42:54.944Z,989.5
2022-11-17T08:44:08.760Z,989.5
2022-11-17T08:45:25.723Z,989.5
2022-11-17T08:46:43.028Z,989.5
2022-11-17T08:47:59.769Z,989.5
2022-11-17T08:49:16.735Z,989.5
2022-11-17T08:50:33.739Z,989.5
2022-11-17T08:51:50.784Z,989.6
2022-11-17T08:53:07.738Z,989.5
2022-11-17T08:54:24.710Z,989.6
2022-11-17T08:55:41.843Z,989.6
2022-11-17T08:56:58.789Z,989.6
2022-11-17T08:58:15.729Z,989.6
2022-11-17T08:59:32.719Z,989.6
2022-11-17T09:00:49.796Z,989.6
2022-11-17T09:02:06.912Z,989.6
2022-11-17T09:03:23.726Z,989.6
2022-11-17T09:04:40.729Z,989.6
2022-11-17T09:05:57.731Z,989.6
2022-11-17T09:07:14.866Z,989.7
2022-11-17T09:08:45.353Z,989.6
2022-11-17T09:09:48.761Z,989.7
2022-11-17T09:11:05.748Z,989.7
2022-11-17T09:12:25.595Z,989.7
2022-11-17T09:13:42.907Z,989.6
2022-11-17T09:14:59.804Z,989.6
2022-11-17T09:16:16.820Z,989.7
2022-11-17T09:17:33.899Z,989.7
2022-11-17T09:18:50.748Z,989.6
2022-11-17T09:20:07.912Z,989.6
2022-11-17T09:21:24.759Z,989.7
2022-11-17T09:22:42.002Z,989.7
2022-11-17T09:23:59.246Z,989.7
2022-11-17T09:25:15.800Z,989.7
2022-11-17T09:26:32.769Z,989.7
2022-11-17T09:27:49.947Z,989.7
2022-11-17T09:29:07.038Z,989.8
2022-11-17T09:30:23.845Z,989.7
2022-11-17T09:31:40.866Z,989.7
2022-11-17T09:32:58.039Z,989.8
2022-11-17T09:34:14.842Z,989.8
2022-11-17T09:35:31.890Z,989.8
2022-11-17T09:36:48.807Z,989.7
2022-11-17T09:38:05.859Z,989.7
2022-11-17T09:39:22.916Z,989.7
2022-11-17T09:40:39.833Z,989.7
2022-11-17T09:41:56.786Z,989.7
2022-11-17T09:43:13.850Z,989.6
2022-11-17T09:44:30.800Z,989.6
2022-11-17T09:45:47.902Z,989.6
2022-11-17T09:47:04.845Z,989.6
2022-11-17T09:49:38.783Z,989.6
2022-11-17T09:50:55.797Z,989.6
2022-11-17T09:52:12.843Z,989.7
2022-11-17T09:53:29.863Z,989.6
2022-11-17T09:54:46.810Z,989.6
2022-11-17T09:56:03.850Z,989.6
2022-11-17T09:57:20.786Z,989.6
2022-11-17T09:58:38.483Z,989.6
2022-11-17T09:59:54.843Z,989.6
2022-11-17T10:01:11.827Z,989.6
2022-11-17T10:02:28.983Z,989.5
2022-11-17T10:03:46.742Z,989.5
2022-11-17T10:05:02.916Z,989.5
2022-11-17T10:06:20.027Z,989.5
2022-11-17T10:07:36.907Z,989.5
2022-11-17T10:08:53.822Z,989.5
2022-11-17T10:10:10.872Z,989.5
2022-11-17T10:11:27.818Z,989.5
2022-11-17T10:12:45.441Z,989.4
2022-11-17T10:14:02.827Z,989.5
2022-11-17T10:15:20.075Z,989.4
2022-11-17T10:16:36.868Z,989.4
2022-11-17T10:17:53.859Z,989.4
2022-11-17T10:19:10.850Z,989.4
2022-11-17T10:20:27.961Z,989.4
2022-11-17T10:21:44.847Z,989.4
2022-11-17T10:23:01.963Z,989.4
2022-11-17T10:24:18.847Z,989.4
2022-11-17T10:25:36.042Z,989.4
2022-11-17T10:26:52.831Z,989.4
2022-11-17T10:28:10.038Z,989.5
2022-11-17T10:29:26.847Z,989.5
2022-11-17T10:30:43.914Z,989.4
2022-11-17T10:32:00.859Z,989.4
2022-11-17T10:33:18.290Z,989.5
2022-11-17T10:34:40.460Z,989.5
2022-11-17T10:35:51.858Z,989.5
2022-11-17T10:37:08.892Z,989.5
2022-11-17T10:38:25.880Z,989.5
2022-11-17T10:39:42.899Z,989.5
2022-11-17T10:40:59.855Z,989.5
2022-11-17T10:42:17.009Z,989.5
2022-11-17T10:43:34.214Z,989.5
2022-11-17T10:44:50.891Z,989.4
2022-11-17T10:46:07.878Z,989.5
2022-11-17T10:47:24.860Z,989.5
2022-11-17T10:48:41.891Z,989.5
2022-11-17T10:49:58.889Z,989.5
2022-11-17T10:51:15.858Z,989.5
2022-11-17T10:52:32.886Z,989.5
2022-11-17T10:53:50.256Z,989.5
2022-11-17T10:55:06.898Z,989.4
2022-11-17T10:56:23.893Z,989.4
2022-11-17T10:57:40.877Z,989.4
2022-11-17T10:58:57.936Z,989.5
2022-11-17T11:00:14.992Z,989.5
2022-11-17T11:01:32.130Z,989.5
2022-11-17T11:02:48.912Z,989.5
2022-11-17T11:04:05.982Z,989.5
2022-11-17T11:05:22.916Z,989.5
2022-11-17T11:06:40.498Z,989.4
2022-11-17T11:07:57.931Z,989.4
2022-11-17T11:09:14.970Z,989.4
2022-11-17T11:10:31.904Z,989.4
2022-11-17T11:11:48.998Z,989.5
2022-11-17T11:13:05.899Z,989.4
2022-11-17T11:14:22.963Z,989.5
2022-11-17T11:15:39.956Z,989.4
2022-11-17T11:16:56.903Z,989.4
2022-11-17T11:18:13.959Z,989.4
2022-11-17T11:19:30.949Z,989.4
2022-11-17T11:20:47.922Z,989.3
2022-11-17T11:22:04.930Z,989.4
2022-11-17T11:23:21.976Z,989.4
2022-11-17T11:24:38.985Z,989.4
2022-11-17T11:25:55.934Z,989.3
2022-11-17T11:27:12.965Z,989.3
2022-11-17T11:28:30.059Z,989.4
2022-11-17T11:29:46.989Z,989.4
2022-11-17T11:31:04.103Z,989.4
2022-11-17T11:32:20.977Z,989.5
2022-11-17T11:33:37.958Z,989.5
2022-11-17T11:34:54.934Z,989.5
2022-11-17T11:36:11.996Z,989.5
2022-11-17T11:37:29.052Z,989.6
2022-11-17T11:38:45.954Z,989.5
2022-11-17T11:40:03.016Z,989.5
2022-11-17T11:41:19.994Z,989.6
2022-11-17T11:42:37.057Z,989.6
2022-11-17T11:43:53.933Z,989.5
2022-11-17T11:45:10.994Z,989.5
2022-11-17T11:46:27.997Z,989.5
2022-11-17T11:47:44.974Z,989.5
2022-11-17T11:49:02.067Z,989.4
2022-11-17T11:50:18.949Z,989.4
2022-11-17T11:51:36.073Z,989.4
2022-11-17T11:52:53.030Z,989.4
2022-11-17T11:54:10.342Z,989.4
2022-11-17T11:55:27.170Z,989.5
2022-11-17T11:56:43.985Z,989.5
2022-11-17T11:58:01.010Z,989.5
2022-11-17T11:59:17.949Z,989.5
2022-11-17T12:00:35.028Z,989.4
2022-11-17T12:01:52.096Z,989.4
2022-11-17T12:03:09.040Z,989.4
2022-11-17T12:04:25.958Z,989.4
2022-11-17T12:05:43.829Z,989.4
2022-11-17T12:07:01.061Z,989.4
2022-11-17T12:08:18.033Z,989.4
2022-11-17T12:09:34.987Z,989.5
2022-11-17T12:10:52.055Z,989.5
2022-11-17T12:12:09.051Z,989.4
2022-11-17T12:13:26.134Z,989.4
2022-11-17T12:14:43.000Z,989.5
2022-11-17T12:16:00.199Z,989.4
2022-11-17T12:17:17.038Z,989.4
2022-11-17T12:18:34.082Z,989.5
2022-11-17T12:19:50.989Z,989.5
2022-11-17T12:21:08.095Z,989.5
2022-11-17T12:22:25.112Z,989.5
2022-11-17T12:23:42.148Z,989.4
2022-11-17T12:24:59.129Z,989.4
2022-11-17T12:26:16.001Z,989.4
2022-11-17T12:27:33.012Z,989.3
2022-11-17T12:28:50.067Z,989.4
2022-11-17T12:30:07.099Z,989.4
2022-11-17T12:31:24.004Z,989.4
2022-11-17T12:32:41.059Z,989.4
2022-11-17T12:33:58.067Z,989.5
2022-11-17T12:35:15.050Z,989.5
2022-11-17T12:36:32.012Z,989.5
2022-11-17T12:37:49.084Z,989.5
2022-11-17T12:39:06.055Z,989.5
2022-11-17T12:40:23.197Z,989.4
2022-11-17T12:41:40.206Z,989.4
2022-11-17T12:42:57.171Z,989.4
2022-11-17T12:44:14.459Z,989.4
2022-11-17T12:45:31.331Z,989.5
2022-11-17T12:46:48.043Z,989.4
2022-11-17T12:48:32.101Z,989.4
2022-11-17T12:49:22.034Z,989.4
2022-11-17T12:50:39.074Z,989.4
2022-11-17T12:51:56.084Z,989.4
2022-11-17T12:53:13.047Z,989.5
2022-11-17T12:54:30.086Z,989.5
2022-11-17T12:55:47.033Z,989.5
2022-11-17T12:57:04.083Z,989.5
2022-11-17T12:58:21.561Z,989.5
2022-11-17T12:59:38.272Z,989.5
2022-11-17T13:00:55.144Z,989.5
2022-11-17T13:02:12.028Z,989.5
2022-11-17T13:03:29.067Z,989.5
2022-11-17T13:04:49.261Z,989.5
2022-11-17T13:06:28.097Z,989.4
2022-11-17T13:07:20.154Z,989.5
2022-11-17T13:08:37.077Z,989.4
2022-11-17T13:09:54.053Z,989.5
2022-11-17T13:11:11.166Z,989.4
2022-11-17T13:12:28.203Z,989.4
2022-11-17T13:13:46.994Z,989.4
2022-11-17T13:15:02.403Z,989.4
2022-11-17T13:16:19.065Z,989.4
2022-11-17T13:17:36.083Z,989.4
2022-11-17T13:18:53.056Z,989.4
2022-11-17T13:20:10.113Z,989.3
2022-11-17T13:21:27.108Z,989.3
2022-11-17T13:22:44.114Z,989.3
2022-11-17T13:24:01.153Z,989.3
2022-11-17T13:25:18.312Z,989.3
2022-11-17T13:26:35.250Z,989.3
2022-11-17T13:27:56.191Z,989.3
2022-11-17T13:29:09.085Z,989.3
2022-11-17T13:30:26.125Z,989.3
2022-11-17T13:31:43.150Z,989.3
2022-11-17T13:33:00.088Z,989.3
2022-11-17T13:34:17.327Z,989.3
2022-11-17T13:35:34.124Z,989.2
2022-11-17T13:36:51.077Z,989.2
2022-11-17T13:38:08.144Z,989.2
2022-11-17T13:39:27.400Z,989.1
2022-11-17T13:40:42.107Z,989.2
2022-11-17T13:41:59.160Z,989.3
2022-11-17T13:43:16.096Z,989.3
2022-11-17T13:44:33.281Z,989.3
2022-11-17T13:45:50.098Z,989.2
2022-11-17T13:47:07.260Z,989.2
2022-11-17T13:48:24.225Z,989.2
2022-11-17T13:49:41.111Z,989.2
2022-11-17T13:50:58.116Z,989.2
2022-11-17T13:52:15.354Z,989.2
2022-11-17T13:53:32.129Z,989.2
2022-11-17T13:54:49.205Z,989.1
2022-11-17T13:56:06.109Z,989.1
2022-11-17T13:57:23.309Z,989.1
2022-11-17T13:58:40.353Z,989
2022-11-17T13:59:57.136Z,989
2022-11-17T14:01:14.166Z,989.1
2022-11-17T14:02:31.185Z,989.1
2022-11-17T14:03:48.177Z,989.1
2022-11-17T14:05:05.292Z,989
2022-11-17T14:06:22.124Z,989
2022-11-17T14:07:39.184Z,989
2022-11-17T14:08:56.155Z,989
2022-11-17T14:10:13.184Z,989
2022-11-17T14:11:30.125Z,989.1
2022-11-17T14:12:47.134Z,989.1
2022-11-17T14:14:04.129Z,989
2022-11-17T14:15:21.227Z,989
2022-11-17T14:16:38.175Z,989
2022-11-17T14:17:55.275Z,989
2022-11-17T14:19:12.164Z,989.1
2022-11-17T14:20:29.156Z,989
2022-11-17T14:21:46.153Z,989
2022-11-17T14:23:03.460Z,989
2022-11-17T14:24:20.221Z,989.1
2022-11-17T14:25:37.623Z,989.1
2022-11-17T14:26:54.145Z,989.1
2022-11-17T14:28:11.177Z,989.1
2022-11-17T14:29:28.186Z,989
2022-11-17T14:30:45.268Z,989.1
2022-11-17T14:32:02.195Z,989.1
2022-11-17T14:33:19.176Z,989.1
2022-11-17T14:34:36.147Z,989.1
2022-11-17T14:35:53.277Z,989.1
2022-11-17T14:37:10.440Z,989
2022-11-17T14:38:27.159Z,989.1
2022-11-17T14:39:44.174Z,989
2022-11-17T14:41:01.222Z,989
2022-11-17T14:42:18.190Z,988.9
2022-11-17T14:43:35.224Z,989
2022-11-17T14:44:52.217Z,988.9
2022-11-17T14:46:09.232Z,988.9
2022-11-17T14:47:26.204Z,988.9
2022-11-17T14:48:43.663Z,988.9
2022-11-17T14:50:01.462Z,988.9
2022-11-17T14:51:18.215Z,988.9
2022-11-17T14:52:35.259Z,988.9
2022-11-17T14:53:52.287Z,988.9
2022-11-17T14:55:09.201Z,988.9
2022-11-17T14:56:27.986Z,989
2022-11-17T14:57:46.210Z,989
2022-11-17T14:59:04.836Z,989
2022-11-17T15:00:25.045Z,989
2022-11-17T15:01:43.207Z,989
2022-11-17T15:03:00.212Z,989
2022-11-17T15:05:34.228Z,989
2022-11-17T15:06:51.228Z,989
2022-11-17T15:08:08.234Z,989
2022-11-17T15:09:25.260Z,989
2022-11-17T15:10:42.248Z,989
2022-11-17T15:11:59.255Z,989
2022-11-17T15:13:16.209Z,989
2022-11-17T15:14:33.273Z,989
2022-11-17T15:15:50.238Z,989
2022-11-17T15:17:09.885Z,989
2022-11-17T15:18:24.222Z,989
2022-11-17T15:19:41.298Z,989
2022-11-17T15:20:58.258Z,989
2022-11-17T15:22:15.216Z,989
2022-11-17T15:23:32.253Z,989
2022-11-17T15:24:49.255Z,989
2022-11-17T15:26:06.253Z,989.1
2022-11-17T15:27:23.276Z,989.1
2022-11-17T15:28:40.309Z,989.1
2022-11-17T15:29:57.315Z,989.1
2022-11-17T15:31:14.272Z,989.2
2022-11-17T15:32:31.342Z,989.2
2022-11-17T15:33:48.454Z,989.2
2022-11-17T15:35:05.353Z,989.2
2022-11-17T15:36:22.281Z,989.2
2022-11-17T15:37:39.291Z,989.1
2022-11-17T15:38:56.390Z,989.2
2022-11-17T15:40:18.067Z,989.2
2022-11-17T15:41:32.939Z,989.1
2022-11-17T15:42:47.320Z,989.1
2022-11-17T15:44:04.274Z,989.1
2022-11-17T15:45:21.266Z,989.1
2022-11-17T15:46:40.559Z,989.1
2022-11-17T15:47:55.249Z,989.1
2022-11-17T15:49:12.273Z,989.1
2022-11-17T15:50:29.291Z,989.1
2022-11-17T15:51:46.256Z,989.1
2022-11-17T15:53:04.661Z,989
2022-11-17T15:54:21.193Z,989
2022-11-17T15:55:37.289Z,989
2022-11-17T15:56:54.293Z,989
2022-11-17T15:58:11.302Z,989
2022-11-17T15:59:28.286Z,989
2022-11-17T16:00:45.395Z,988.9
2022-11-17T16:02:02.397Z,988.9
2022-11-17T16:03:19.406Z,989
2022-11-17T16:04:36.298Z,989
2022-11-17T16:05:53.537Z,989
2022-11-17T16:07:10.448Z,989
2022-11-17T16:08:27.299Z,989
2022-11-17T16:09:47.421Z,989
2022-11-17T16:11:01.303Z,989
2022-11-17T16:12:18.364Z,989
2022-11-17T16:13:35.411Z,989
2022-11-17T16:14:52.327Z,989
2022-11-17T16:16:09.294Z,989
2022-11-17T16:17:26.351Z,989
2022-11-17T16:18:43.285Z,989
2022-11-17T16:20:00.474Z,988.9
2022-11-17T16:21:17.331Z,988.9
2022-11-17T16:22:34.296Z,988.9
2022-11-17T16:23:51.287Z,988.9
2022-11-17T16:25:08.383Z,988.9
2022-11-17T16:26:25.301Z,988.9
2022-11-17T16:27:42.625Z,988.9
2022-11-17T16:28:59.310Z,988.9
2022-11-17T16:30:16.867Z,988.9
2022-11-17T16:31:34.332Z,988.9
2022-11-17T16:32:51.580Z,988.8
2022-11-17T16:34:08.813Z,988.8
2022-11-17T16:35:26.489Z,988.8
2022-11-17T16:36:43.976Z,988.7
2022-11-17T16:38:01.475Z,988.7
2022-11-17T16:39:18.561Z,988.7
2022-11-17T16:40:35.354Z,988.8